Date,TemperatureHighF,TemperatureAvgF,TemperatureLowF,DewpointHighF,DewpointAvgF,DewpointLowF,HumidityHigh,HumidityAvg,HumidityLow,PressureMaxIn,PressureMinIn,WindSpeedMaxMPH,WindSpeedAvgMPH,GustSpeedMaxMPH,PrecipitationSumIn
2013-8-1,82.3,73.5,66.7,68.4,64.1,60.0,91,74,49,31.84,29.40,17,2,17,0.00
2013-8-2,79.6,70.2,63.2,68.5,63.2,59.8,92,80,64,31.55,25.12,15,2,17,0.00
2013-8-3,82.5,77.7,71.0,71.5,67.9,62.6,84,72,62,32.07,27.27,14,3,14,0.00
2013-8-4,77.5,69.1,60.9,62.9,58.2,54.3,86,69,49,31.17,23.42,14,2,15,0.00
2013-8-5,78.7,70.5,60.7,65.6,60.9,57.0,91,73,49,31.66,22.34,15,2,16,0.00
2013-8-6,80.8,74.5,70.5,72.8,67.7,62.1,89,79,66,31.91,23.19,13,2,13,0.00
2013-8-7,82.3,76.6,72.6,74.4,71.9,69.8,92,86,75,32.37,20.75,14,3,17,0.00
2013-8-8,86.3,77.8,72.9,76.5,72.1,69.7,92,83,67,32.31,23.00,20,2,23,0.14
2013-8-9,82.7,75.6,71.9,72.4,70.3,67.7,92,84,63,31.44,21.44,8,1,9,0.02
2013-8-10,85.0,75.8,70.7,72.7,67.6,65.1,86,76,58,32.45,21.60,10,1,10,0.00
2013-8-11,84.0,75.0,67.8,69.5,66.2,63.0,91,75,54,32.24,21.60,15,1,19,0.00
2013-8-12,81.0,73.5,65.9,73.0,68.1,63.2,92,84,71,32.20,25.09,12,1,14,0.00
2013-8-13,76.5,71.5,61.7,69.9,63.1,50.6,89,75,63,32.28,23.46,17,4,18,0.00
2013-8-14,70.5,62.5,54.7,55.2,51.5,49.2,83,68,51,31.42,22.15,16,5,19,0.00
2013-8-15,71.1,62.4,52.9,57.8,53.6,49.0,88,74,59,29.02,24.89,11,2,15,0.00
2013-8-16,75.3,66.9,55.9,61.3,56.7,51.8,86,71,54,31.05,21.67,13,3,15,0.00
2013-8-17,79.1,69.4,60.8,65.7,59.0,54.2,81,70,52,31.00,20.58,12,2,13,0.00
2013-8-18,83.0,71.2,62.2,66.2,61.8,58.9,90,74,48,30.95,23.23,10,1,11,0.00
2013-8-19,84.0,72.1,62.3,68.0,63.3,59.6,91,76,46,31.55,22.07,4,0,4,0.00
2013-8-20,85.6,74.0,65.3,70.8,66.6,62.6,92,79,57,32.21,24.34,21,1,22,0.01
2013-8-21,87.2,75.8,67.8,72.8,68.7,65.1,92,80,55,32.44,21.84,6,1,7,0.00
2013-8-22,87.4,77.0,68.9,73.2,69.9,66.1,92,80,58,32.27,20.59,19,2,19,0.00
2013-8-23,84.6,75.7,70.2,70.4,67.4,65.3,88,76,57,32.27,20.80,15,2,15,0.00
2013-8-24,85.8,74.4,66.0,68.1,63.3,58.8,85,70,44,32.31,20.14,10,2,11,0.00
2013-8-25,86.0,73.6,63.3,68.5,64.5,60.3,91,75,49,32.25,25.29,7,1,7,0.00
2013-8-26,87.3,77.1,68.1,73.7,69.7,65.3,91,79,56,32.17,19.05,12,1,14,0.01
2013-8-27,88.9,79.3,72.3,76.0,72.3,69.2,91,80,62,32.50,19.05,13,1,15,0.00
2013-8-28,93.3,82.8,75.3,73.2,71.8,70.5,88,71,49,32.05,22.34,17,2,18,0.00
2013-8-29,88.3,79.7,74.2,73.8,71.6,69.1,90,77,55,31.96,23.41,10,1,11,0.00
2013-8-30,93.0,79.6,69.6,75.9,71.3,66.9,91,77,52,32.21,25.15,10,1,12,0.00
2013-8-31,93.8,80.9,70.0,77.7,72.6,65.8,89,77,56,32.21,21.08,46,5,47,0.16